createdAt,value
2023-02-28T00:00:12.973Z,41.96
2023-02-28T00:02:43.158Z,42.58
2023-02-28T00:05:10.216Z,42.76
2023-02-28T00:07:37.098Z,42.98
2023-02-28T00:10:04.842Z,42.77
2023-02-28T00:12:31.369Z,43.10
2023-02-28T00:14:57.952Z,43.61
2023-02-28T00:17:24.703Z,43.29
2023-02-28T00:19:52.013Z,43.47
2023-02-28T00:22:19.911Z,43.70
2023-02-28T00:24:46.638Z,44.07
2023-02-28T00:27:13.124Z,43.55
2023-02-28T00:29:39.912Z,43.86
2023-02-28T00:32:07.175Z,44.54
2023-02-28T00:34:38.686Z,44.80
2023-02-28T00:37:09.912Z,44.28
2023-02-28T00:39:37.335Z,45.03
2023-02-28T00:42:04.811Z,45.12
2023-02-28T00:44:32.272Z,44.74
2023-02-28T00:46:59.898Z,44.69
2023-02-28T00:49:27.774Z,45.20
2023-02-28T00:51:54.997Z,45.62
2023-02-28T00:54:22.220Z,45.75
2023-02-28T00:56:49.040Z,45.25
2023-02-28T00:59:16.529Z,46.10
2023-02-28T01:01:43.724Z,46.24
2023-02-28T01:04:10.477Z,46.17
2023-02-28T01:06:37.219Z,46.10
2023-02-28T01:09:04.977Z,46.61
2023-02-28T01:11:31.641Z,46.36
2023-02-28T01:13:58.238Z,45.77
2023-02-28T01:16:25.236Z,45.92
2023-02-28T01:18:51.751Z,45.89
2023-02-28T01:21:19.551Z,46.63
2023-02-28T01:23:46.640Z,46.31
2023-02-28T01:26:14.898Z,45.99
2023-02-28T01:28:42.105Z,46.77
2023-02-28T01:31:09.198Z,46.53
2023-02-28T01:33:38.338Z,45.94
2023-02-28T01:36:10.881Z,46.89
2023-02-28T01:38:37.502Z,46.11
2023-02-28T01:41:04.822Z,47.01
2023-02-28T01:43:54.107Z,46.38
2023-02-28T01:46:20.624Z,47.45
2023-02-28T01:48:57.307Z,47.83
2023-02-28T01:51:32.613Z,47.84
2023-02-28T01:54:14.706Z,47.83
2023-02-28T01:56:44.941Z,47.91
2023-02-28T01:59:13.658Z,48.72
2023-02-28T02:01:40.310Z,48.39
2023-02-28T02:04:06.876Z,48.40
2023-02-28T02:06:43.310Z,49.22
2023-02-28T02:09:10.587Z,49.49
2023-02-28T02:11:38.453Z,49.41
2023-02-28T02:14:11.220Z,49.09
2023-02-28T02:16:47.537Z,49.18
2023-02-28T02:19:17.090Z,48.67
2023-02-28T02:22:13.037Z,49.35
2023-02-28T02:24:52.538Z,49.30
2023-02-28T02:27:19.298Z,49.54
2023-02-28T02:29:57.838Z,48.94
2023-02-28T02:32:43.545Z,49.91
2023-02-28T02:35:22.014Z,49.91
2023-02-28T02:37:48.540Z,50.20
2023-02-28T02:40:18.271Z,50.25
2023-02-28T02:42:51.808Z,50.55
2023-02-28T02:45:28.250Z,50.55
2023-02-28T02:47:57.333Z,50.21
2023-02-28T02:50:27.092Z,50.38
2023-02-28T02:52:56.925Z,50.37
2023-02-28T02:55:24.211Z,50.43
2023-02-28T02:57:53.922Z,50.95
2023-02-28T03:00:23.915Z,50.91
2023-02-28T03:02:53.643Z,51.24
2023-02-28T03:05:22.590Z,51.20
2023-02-28T03:07:49.152Z,51.10
2023-02-28T03:10:34.477Z,51.84
2023-02-28T03:13:08.645Z,51.72
2023-02-28T03:15:45.715Z,51.45
2023-02-28T03:18:20.755Z,52.21
2023-02-28T03:20:55.257Z,51.60
2023-02-28T03:23:24.543Z,52.32
2023-02-28T03:25:51.020Z,51.66
2023-02-28T03:28:38.544Z,51.80
2023-02-28T03:31:13.461Z,52.13
2023-02-28T03:33:43.012Z,52.16
2023-02-28T03:36:13.551Z,52.49
2023-02-28T03:38:45.381Z,52.64
2023-02-28T03:41:17.732Z,52.57
2023-02-28T03:43:48.551Z,52.71
2023-02-28T03:46:19.229Z,52.85
2023-02-28T03:48:50.015Z,53.02
2023-02-28T03:51:19.292Z,52.29
2023-02-28T03:53:49.006Z,52.22
2023-02-28T03:56:28.213Z,52.86
2023-02-28T03:58:58.213Z,52.48
2023-02-28T04:01:28.522Z,52.29
2023-02-28T04:03:55.429Z,52.75
2023-02-28T04:06:22.956Z,52.03
2023-02-28T04:08:49.701Z,52.17
2023-02-28T04:11:22.433Z,52.32
2023-02-28T04:13:49.326Z,52.26
2023-02-28T04:16:32.176Z,52.18
2023-02-28T04:19:03.773Z,52.31
2023-02-28T04:21:31.377Z,53.15
2023-02-28T04:24:01.449Z,53.13
2023-02-28T04:26:37.200Z,53.00
2023-02-28T04:29:04.854Z,52.90
2023-02-28T04:31:33.054Z,52.30
2023-02-28T04:33:59.799Z,52.25
2023-02-28T04:36:26.349Z,52.31
2023-02-28T04:39:06.632Z,52.73
2023-02-28T04:41:46.003Z,51.93
2023-02-28T04:44:22.488Z,51.82
2023-02-28T04:46:49.921Z,52.69
2023-02-28T04:49:16.813Z,51.93
2023-02-28T04:51:45.743Z,52.59
2023-02-28T04:54:12.638Z,52.60
2023-02-28T04:56:41.243Z,52.48
2023-02-28T04:59:07.731Z,51.86
2023-02-28T05:01:34.894Z,52.64
2023-02-28T05:04:02.795Z,51.95
2023-02-28T05:06:30.096Z,52.86
2023-02-28T05:08:57.453Z,51.93
2023-02-28T05:11:25.435Z,52.80
2023-02-28T05:13:53.232Z,52.23
2023-02-28T05:16:20.277Z,52.48
2023-02-28T05:18:47.021Z,51.98
2023-02-28T05:21:24.831Z,52.16
2023-02-28T05:23:51.622Z,51.71
2023-02-28T05:26:18.168Z,51.67
2023-02-28T05:28:44.635Z,51.67
2023-02-28T05:31:14.599Z,50.95
2023-02-28T05:33:41.221Z,51.11
2023-02-28T05:36:07.912Z,50.35
2023-02-28T05:38:34.446Z,50.51
2023-02-28T05:41:00.949Z,50.92
2023-02-28T05:43:27.496Z,50.66
2023-02-28T05:45:54.111Z,51.20
2023-02-28T05:48:20.677Z,51.18
2023-02-28T05:50:47.242Z,50.78
2023-02-28T05:53:13.843Z,49.93
2023-02-28T05:55:42.080Z,50.28
2023-02-28T05:58:08.703Z,50.66
2023-02-28T06:00:36.025Z,50.91
2023-02-28T06:03:03.168Z,51.14
2023-02-28T06:05:29.756Z,51.07
2023-02-28T06:07:56.242Z,50.86
2023-02-28T06:10:23.047Z,50.74
2023-02-28T06:12:49.548Z,50.35
2023-02-28T06:15:16.511Z,51.15
2023-02-28T06:17:44.508Z,51.19
2023-02-28T06:20:13.764Z,51.02
2023-02-28T06:22:40.715Z,51.58
2023-02-28T06:25:07.769Z,50.78
2023-02-28T06:27:34.535Z,51.62
2023-02-28T06:30:01.096Z,51.70
2023-02-28T06:32:27.742Z,51.04
2023-02-28T06:34:54.341Z,51.62
2023-02-28T06:37:21.158Z,50.88
2023-02-28T06:39:47.928Z,50.80
2023-02-28T06:42:14.699Z,51.11
2023-02-28T06:44:41.431Z,51.21
2023-02-28T06:47:07.972Z,50.61
2023-02-28T06:49:35.243Z,50.68
2023-02-28T06:52:02.209Z,50.90
2023-02-28T06:54:28.761Z,51.23
2023-02-28T06:56:55.477Z,50.99
2023-02-28T06:59:22.220Z,50.06
2023-02-28T07:01:48.845Z,50.65
2023-02-28T07:04:15.567Z,50.70
2023-02-28T07:06:42.150Z,49.66
2023-02-28T07:09:09.233Z,49.33
2023-02-28T07:11:36.011Z,49.57
2023-02-28T07:14:02.682Z,48.64
2023-02-28T07:16:29.235Z,49.19
2023-02-28T07:18:56.218Z,49.29
2023-02-28T07:21:23.289Z,48.23
2023-02-28T07:23:49.857Z,48.15
2023-02-28T07:26:17.939Z,48.59
2023-02-28T07:28:45.660Z,48.52
2023-02-28T07:31:12.916Z,48.55
2023-02-28T07:33:39.652Z,47.90
2023-02-28T07:36:10.256Z,48.18
2023-02-28T07:38:38.332Z,47.88
2023-02-28T07:41:05.340Z,47.20
2023-02-28T07:43:32.735Z,47.13
2023-02-28T07:46:03.849Z,46.36
2023-02-28T07:48:30.510Z,45.88
2023-02-28T07:50:57.818Z,45.60
2023-02-28T07:53:24.621Z,44.63
2023-02-28T07:55:51.256Z,44.55
2023-02-28T07:58:17.858Z,44.04
2023-02-28T08:00:44.570Z,43.42
2023-02-28T08:03:14.449Z,43.88
2023-02-28T08:05:41.445Z,44.00
2023-02-28T08:08:08.533Z,43.04
2023-02-28T08:10:35.330Z,42.74
2023-02-28T08:13:01.852Z,43.38
2023-02-28T08:15:28.507Z,43.29
2023-02-28T08:17:57.238Z,43.29
2023-02-28T08:20:24.661Z,42.84
2023-02-28T08:22:51.331Z,42.60
2023-02-28T08:25:18.072Z,42.19
2023-02-28T08:27:44.884Z,42.96
2023-02-28T08:30:12.668Z,42.16
2023-02-28T08:32:39.685Z,42.16
2023-02-28T08:35:06.483Z,43.10
2023-02-28T08:37:33.010Z,43.87
2023-02-28T08:39:59.630Z,43.86
2023-02-28T08:42:26.308Z,43.81
2023-02-28T08:44:52.916Z,43.51
2023-02-28T08:47:19.972Z,43.89
2023-02-28T08:49:47.325Z,43.11
2023-02-28T08:52:13.971Z,43.07
2023-02-28T08:54:40.565Z,43.88
2023-02-28T08:57:07.228Z,43.39
2023-02-28T08:59:33.830Z,43.76
2023-02-28T09:02:01.523Z,43.97
2023-02-28T09:04:28.103Z,43.78
2023-02-28T09:06:54.821Z,43.48
2023-02-28T09:09:21.432Z,43.45
2023-02-28T09:11:48.078Z,43.25
2023-02-28T09:14:14.845Z,42.90
2023-02-28T09:16:41.542Z,42.79
2023-02-28T09:19:11.365Z,42.32
2023-02-28T09:21:37.906Z,41.61
2023-02-28T09:24:04.621Z,41.73
2023-02-28T09:26:35.322Z,41.80
2023-02-28T09:29:10.138Z,40.74
2023-02-28T09:31:36.795Z,41.95
2023-02-28T09:34:04.999Z,40.96
2023-02-28T09:36:43.539Z,40.09
2023-02-28T09:39:11.755Z,40.51
2023-02-28T09:41:42.365Z,41.42
2023-02-28T09:44:13.997Z,39.65
2023-02-28T09:46:44.088Z,39.05
2023-02-28T09:49:15.589Z,39.76
2023-02-28T09:51:56.153Z,39.88
2023-02-28T09:54:24.016Z,39.57
2023-02-28T09:56:53.832Z,39.00
2023-02-28T09:59:32.758Z,38.52
2023-02-28T10:02:15.004Z,38.30
2023-02-28T10:04:52.555Z,38.10
2023-02-28T10:07:38.112Z,38.31
2023-02-28T10:10:09.878Z,37.85
2023-02-28T10:12:39.907Z,37.65
2023-02-28T10:15:06.943Z,37.87
2023-02-28T10:17:55.635Z,37.36
2023-02-28T10:20:32.391Z,37.17
2023-02-28T10:23:11.371Z,37.19
2023-02-28T10:25:39.341Z,33.52
2023-02-28T10:28:27.324Z,26.86
2023-02-28T10:30:55.167Z,21.76
2023-02-28T10:33:41.541Z,19.76
2023-02-28T10:36:14.587Z,18.39
2023-02-28T10:38:41.314Z,17.37
2023-02-28T10:41:12.843Z,17.00
2023-02-28T10:43:40.938Z,15.61
2023-02-28T10:46:10.940Z,15.40
2023-02-28T10:48:41.722Z,14.89
2023-02-28T10:51:10.951Z,14.63
2023-02-28T10:54:01.399Z,15.88
2023-02-28T10:56:30.040Z,16.06
2023-02-28T10:59:09.461Z,17.19
2023-02-28T11:01:39.249Z,17.44
2023-02-28T11:04:20.628Z,15.27
2023-02-28T11:06:54.858Z,14.11
2023-02-28T11:09:28.140Z,15.71
2023-02-28T11:11:54.934Z,16.51
2023-02-28T11:14:30.052Z,16.15
2023-02-28T11:17:00.427Z,15.98
2023-02-28T11:19:29.965Z,15.35
2023-02-28T11:22:00.373Z,14.42
2023-02-28T11:24:29.684Z,13.97
2023-02-28T11:26:56.637Z,13.57
2023-02-28T11:29:25.587Z,13.53
2023-02-28T11:32:03.203Z,13.64
2023-02-28T11:34:32.669Z,13.70
2023-02-28T11:37:02.497Z,13.45
2023-02-28T11:39:30.691Z,12.69
2023-02-28T11:42:03.874Z,13.77
2023-02-28T11:44:37.925Z,15.01
2023-02-28T11:47:15.706Z,15.20
2023-02-28T11:50:02.918Z,14.63
2023-02-28T11:52:42.243Z,15.75
2023-02-28T11:55:17.983Z,15.77
2023-02-28T11:57:49.986Z,14.85
2023-02-28T12:00:30.657Z,13.89
2023-02-28T12:03:00.219Z,13.75
2023-02-28T12:05:32.959Z,13.78
2023-02-28T12:07:59.545Z,13.91
2023-02-28T12:10:28.247Z,13.72
2023-02-28T12:13:07.014Z,13.75
2023-02-28T12:15:44.547Z,13.51
2023-02-28T12:18:23.913Z,12.93
2023-02-28T12:21:14.182Z,13.03
2023-02-28T12:23:55.928Z,12.89
2023-02-28T12:26:36.240Z,13.92
2023-02-28T12:29:16.903Z,14.69
2023-02-28T12:31:48.156Z,14.10
2023-02-28T12:34:19.673Z,13.78
2023-02-28T12:36:50.693Z,13.76
2023-02-28T12:39:24.511Z,15.13
2023-02-28T12:42:00.975Z,13.84
2023-02-28T12:44:27.742Z,13.86
2023-02-28T12:46:56.716Z,13.60
2023-02-28T12:49:28.132Z,15.62
2023-02-28T12:51:55.047Z,16.34
2023-02-28T12:54:33.490Z,18.70
2023-02-28T12:57:09.309Z,21.64
2023-02-28T12:59:35.758Z,22.67
2023-02-28T13:02:20.965Z,22.96
2023-02-28T13:05:05.139Z,24.38
2023-02-28T13:07:43.507Z,24.44
2023-02-28T13:10:11.349Z,25.04
2023-02-28T13:12:48.256Z,25.67
2023-02-28T13:15:20.188Z,25.72
2023-02-28T13:17:49.192Z,25.87
2023-02-28T13:20:16.996Z,26.47
2023-02-28T13:22:45.185Z,26.34
2023-02-28T13:25:24.326Z,26.82
2023-02-28T13:27:57.256Z,26.92
2023-02-28T13:30:42.880Z,27.83
2023-02-28T13:33:24.651Z,27.78
2023-02-28T13:36:22.759Z,27.92
2023-02-28T13:38:54.435Z,28.87
2023-02-28T13:41:31.000Z,28.25
2023-02-28T13:44:04.079Z,28.52
2023-02-28T13:46:31.477Z,28.11
2023-02-28T13:49:18.276Z,28.23
2023-02-28T13:51:47.870Z,28.78
2023-02-28T13:54:25.376Z,28.67
2023-02-28T13:57:01.557Z,28.58
2023-02-28T13:59:35.586Z,29.14
2023-02-28T14:02:31.803Z,29.64
2023-02-28T14:05:02.490Z,29.94
2023-02-28T14:07:43.182Z,29.62
2023-02-28T14:10:23.126Z,29.57
2023-02-28T14:13:12.988Z,29.50
2023-02-28T14:15:45.863Z,29.42
2023-02-28T14:18:18.343Z,29.84
2023-02-28T14:20:46.732Z,29.89
2023-02-28T14:23:19.504Z,29.04
2023-02-28T14:26:01.245Z,29.82
2023-02-28T14:28:38.432Z,29.96
2023-02-28T14:31:18.648Z,29.61
2023-02-28T14:34:27.632Z,29.85
2023-02-28T14:36:58.785Z,29.78
2023-02-28T14:39:40.585Z,29.66
2023-02-28T14:42:31.669Z,29.45
2023-02-28T14:45:05.510Z,29.90
2023-02-28T14:47:38.875Z,30.28
2023-02-28T14:50:37.777Z,30.62
2023-02-28T14:53:13.755Z,31.20
2023-02-28T14:55:55.756Z,31.56
2023-02-28T14:58:28.102Z,30.84
2023-02-28T15:01:02.742Z,30.25
2023-02-28T15:03:52.543Z,29.82
2023-02-28T15:06:40.201Z,30.38
2023-02-28T15:09:18.746Z,30.09
2023-02-28T15:11:51.524Z,30.46
2023-02-28T15:14:25.270Z,30.82
2023-02-28T15:17:03.909Z,30.79
2023-02-28T15:19:36.850Z,30.42
2023-02-28T15:22:18.108Z,31.10
2023-02-28T15:24:55.654Z,31.33
2023-02-28T15:27:33.546Z,31.50
2023-02-28T15:30:17.393Z,31.33
2023-02-28T15:32:46.457Z,31.39
2023-02-28T15:35:33.469Z,31.12
2023-02-28T15:38:24.483Z,32.18
2023-02-28T15:41:15.378Z,32.00
2023-02-28T15:47:22.128Z,32.91
2023-02-28T15:50:09.736Z,33.37
2023-02-28T15:52:59.911Z,32.90
2023-02-28T15:55:29.155Z,32.51
2023-02-28T15:58:26.236Z,32.82
2023-02-28T16:01:08.462Z,32.68
2023-02-28T16:03:47.015Z,32.78
2023-02-28T16:06:58.622Z,33.43
2023-02-28T16:12:49.294Z,32.79
2023-02-28T16:15:27.916Z,33.79
2023-02-28T16:18:10.425Z,33.78
2023-02-28T16:20:44.892Z,33.43
2023-02-28T16:23:14.267Z,34.16
2023-02-28T16:25:44.932Z,34.14
2023-02-28T16:28:32.350Z,33.80
2023-02-28T16:31:01.074Z,34.50
2023-02-28T16:33:31.085Z,34.60
2023-02-28T16:36:02.751Z,34.89
2023-02-28T16:38:30.159Z,34.43
2023-02-28T16:41:03.144Z,34.80
2023-02-28T16:43:33.712Z,34.33
2023-02-28T16:46:12.223Z,34.85
2023-02-28T16:48:45.728Z,35.24
2023-02-28T16:51:17.337Z,34.70
2023-02-28T16:53:48.540Z,34.68
2023-02-28T16:56:23.652Z,35.22
2023-02-28T16:58:51.757Z,35.35
2023-02-28T17:01:32.063Z,35.10
2023-02-28T17:04:16.302Z,34.96
2023-02-28T17:07:01.400Z,35.05
2023-02-28T17:09:43.062Z,35.60
2023-02-28T17:12:13.472Z,35.73
2023-02-28T17:14:46.029Z,35.84
2023-02-28T17:20:15.326Z,35.16
2023-02-28T17:23:03.890Z,35.93
2023-02-28T17:25:36.892Z,36.19
2023-02-28T17:28:15.738Z,36.34
2023-02-28T17:30:56.550Z,35.66
2023-02-28T17:33:26.671Z,36.17
2023-02-28T17:35:55.630Z,36.59
2023-02-28T17:38:36.228Z,36.36
2023-02-28T17:41:03.619Z,35.81
2023-02-28T17:43:39.902Z,36.46
2023-02-28T17:46:27.133Z,35.83
2023-02-28T17:48:54.793Z,36.00
2023-02-28T17:51:25.398Z,35.91
2023-02-28T17:53:55.544Z,36.63
2023-02-28T17:56:28.734Z,36.48
2023-02-28T17:58:57.697Z,36.59
2023-02-28T18:01:34.501Z,36.61
2023-02-28T18:04:15.100Z,36.22
2023-02-28T18:07:03.900Z,37.13
2023-02-28T18:09:48.653Z,36.34
2023-02-28T18:12:18.525Z,37.43
2023-02-28T18:14:48.362Z,37.36
2023-02-28T18:17:22.566Z,36.77
2023-02-28T18:20:13.172Z,36.82
2023-02-28T18:22:54.345Z,37.61
2023-02-28T18:25:31.249Z,36.79
2023-02-28T18:28:08.486Z,37.67
2023-02-28T18:30:39.929Z,37.56
2023-02-28T18:33:11.870Z,37.54
2023-02-28T18:35:46.075Z,37.47
2023-02-28T18:38:15.473Z,37.58
2023-02-28T18:40:57.944Z,37.19
2023-02-28T18:43:28.861Z,37.49
2023-02-28T18:46:01.686Z,37.65
2023-02-28T18:48:35.524Z,37.68
2023-02-28T18:51:06.954Z,37.02
2023-02-28T18:53:40.163Z,37.91
2023-02-28T18:56:11.693Z,37.92
2023-02-28T18:58:53.561Z,37.38
2023-02-28T19:01:22.547Z,37.69
2023-02-28T19:03:53.121Z,38.37
2023-02-28T19:06:20.988Z,38.39
2023-02-28T19:08:55.009Z,38.30
2023-02-28T19:11:22.486Z,38.09
2023-02-28T19:13:53.451Z,38.63
2023-02-28T19:16:32.278Z,38.72
2023-02-28T19:19:14.832Z,38.84
2023-02-28T19:21:42.515Z,38.89
2023-02-28T19:24:15.610Z,38.82
2023-02-28T19:26:44.796Z,38.25
2023-02-28T19:29:17.579Z,38.08
2023-02-28T19:31:54.128Z,38.85
2023-02-28T19:34:24.745Z,38.08
2023-02-28T19:36:51.964Z,38.69
2023-02-28T19:39:22.025Z,38.90
2023-02-28T19:41:49.509Z,38.35
2023-02-28T19:44:20.750Z,38.54
2023-02-28T19:47:14.884Z,38.34
2023-02-28T19:49:43.045Z,38.48
2023-02-28T19:52:15.504Z,39.04
2023-02-28T19:54:42.898Z,39.24
2023-02-28T19:57:11.933Z,38.54
2023-02-28T19:59:43.461Z,38.52
2023-02-28T20:02:14.629Z,39.27
2023-02-28T20:04:46.932Z,38.50
2023-02-28T20:07:23.678Z,38.96
2023-02-28T20:10:02.379Z,38.98
2023-02-28T20:12:33.594Z,38.87
2023-02-28T20:15:04.229Z,38.98
2023-02-28T20:17:35.482Z,39.01
2023-02-28T20:20:02.617Z,38.27
2023-02-28T20:22:38.280Z,39.08
2023-02-28T20:25:07.160Z,39.12
2023-02-28T20:27:38.424Z,38.24
2023-02-28T20:30:08.851Z,38.88
2023-02-28T20:32:49.539Z,38.58
2023-02-28T20:35:23.202Z,39.32
2023-02-28T20:37:54.493Z,39.47
2023-02-28T20:40:30.719Z,39.62
2023-02-28T20:43:01.410Z,39.82
2023-02-28T20:45:32.297Z,39.10
2023-02-28T20:48:02.048Z,39.30
2023-02-28T20:50:34.308Z,40.02
2023-02-28T20:53:02.040Z,40.06
2023-02-28T20:55:29.593Z,39.78
2023-02-28T20:58:00.206Z,39.38
2023-02-28T21:00:34.233Z,39.54
2023-02-28T21:03:07.242Z,40.21
2023-02-28T21:05:44.830Z,39.81
2023-02-28T21:08:21.406Z,39.83
2023-02-28T21:10:56.421Z,39.13
2023-02-28T21:13:33.309Z,39.32
2023-02-28T21:16:14.830Z,39.46
2023-02-28T21:18:42.449Z,39.43
2023-02-28T21:21:20.070Z,39.87
2023-02-28T21:24:05.832Z,39.79
2023-02-28T21:26:55.878Z,40.05
2023-02-28T21:29:27.760Z,39.92
2023-02-28T21:32:02.240Z,40.05
2023-02-28T21:34:35.202Z,40.33
2023-02-28T21:37:10.213Z,40.73
2023-02-28T21:39:40.339Z,40.75
2023-02-28T21:45:32.593Z,41.37
2023-02-28T21:48:21.313Z,40.74
2023-02-28T21:51:06.697Z,41.37
2023-02-28T21:53:40.361Z,41.68
2023-02-28T21:56:30.593Z,41.18
2023-02-28T21:59:04.416Z,41.27
2023-02-28T22:01:43.578Z,41.10
2023-02-28T22:04:28.567Z,41.42
2023-02-28T22:07:03.952Z,41.60
2023-02-28T22:09:37.304Z,41.69
2023-02-28T22:12:10.301Z,41.92
2023-02-28T22:14:50.137Z,41.96
2023-02-28T22:17:39.619Z,42.03
2023-02-28T22:20:18.097Z,41.61
2023-02-28T22:23:17.531Z,41.87
2023-02-28T22:25:47.301Z,41.34
2023-02-28T22:28:47.914Z,42.16
2023-02-28T22:31:41.136Z,41.33
2023-02-28T22:34:22.711Z,42.35
2023-02-28T22:36:56.105Z,43.09
2023-02-28T22:39:27.469Z,42.67
2023-02-28T22:41:57.394Z,42.73
2023-02-28T22:44:31.810Z,43.20
2023-02-28T22:47:02.457Z,43.08
2023-02-28T22:49:35.095Z,42.45
2023-02-28T22:52:18.059Z,42.79
2023-02-28T22:54:54.414Z,42.42
2023-02-28T22:57:24.744Z,42.66
2023-02-28T23:00:04.951Z,43.90
2023-02-28T23:02:44.309Z,43.79
2023-02-28T23:05:28.024Z,44.23
2023-02-28T23:08:22.640Z,44.42
2023-02-28T23:10:57.481Z,43.87
2023-02-28T23:13:36.327Z,44.01
2023-02-28T23:16:12.586Z,44.24
2023-02-28T23:18:46.848Z,44.49
2023-02-28T23:21:21.798Z,45.00
2023-02-28T23:24:02.146Z,44.19
2023-02-28T23:26:35.133Z,44.43
2023-02-28T23:29:05.835Z,44.46
2023-02-28T23:31:44.849Z,44.52
2023-02-28T23:34:13.728Z,44.96
2023-02-28T23:36:46.448Z,44.59
2023-02-28T23:39:20.295Z,45.12
2023-02-28T23:41:49.969Z,45.00
2023-02-28T23:44:20.102Z,44.64
2023-02-28T23:49:39.705Z,44.84
2023-02-28T23:52:18.184Z,44.90
2023-02-28T23:54:45.243Z,45.04
2023-02-28T23:57:27.451Z,45.59
2023-02-28T23:59:55.967Z,45.71
